createdAt,value
2023-04-15T00:00:26.073Z,7.22
2023-04-15T00:01:26.030Z,7.23
2023-04-15T00:02:26.209Z,7.24
2023-04-15T00:03:26.150Z,7.22
2023-04-15T00:04:26.138Z,7.29
2023-04-15T00:05:26.024Z,7.40
2023-04-15T00:06:25.990Z,7.37
2023-04-15T00:07:26.001Z,7.35
2023-04-15T00:08:25.985Z,7.38
2023-04-15T00:09:25.976Z,7.34
2023-04-15T00:10:25.982Z,7.40
2023-04-15T00:11:25.971Z,7.42
2023-04-15T00:12:25.955Z,7.41
2023-04-15T00:13:25.951Z,7.42
2023-04-15T00:14:25.937Z,7.32
2023-04-15T00:15:26.977Z,7.45
2023-04-15T00:16:25.944Z,7.35
2023-04-15T00:17:25.949Z,7.38
2023-04-15T00:18:25.911Z,7.34
2023-04-15T00:19:25.909Z,7.42
2023-04-15T00:20:25.899Z,7.40
2023-04-15T00:21:25.909Z,7.40
2023-04-15T00:22:25.921Z,7.37
2023-04-15T00:23:25.874Z,7.29
2023-04-15T00:24:25.866Z,7.32
2023-04-15T00:25:25.858Z,7.34
2023-04-15T00:26:25.866Z,7.40
2023-04-15T00:27:25.861Z,7.34
2023-04-15T00:28:25.833Z,7.37
2023-04-15T00:29:25.843Z,7.34
2023-04-15T00:30:25.850Z,7.38
2023-04-15T00:31:25.886Z,7.29
2023-04-15T00:32:25.889Z,7.32
2023-04-15T00:33:25.808Z,7.32
2023-04-15T00:34:25.823Z,7.29
2023-04-15T00:35:25.816Z,7.32
2023-04-15T00:36:25.789Z,7.20
2023-04-15T00:37:25.790Z,7.27
2023-04-15T00:38:25.795Z,7.24
2023-04-15T00:39:25.766Z,7.29
2023-04-15T00:40:25.758Z,7.32
2023-04-15T00:41:25.763Z,7.29
2023-04-15T00:42:25.757Z,7.26
2023-04-15T00:43:25.795Z,7.32
2023-04-15T00:44:25.736Z,7.20
2023-04-15T00:45:25.722Z,7.26
2023-04-15T00:46:25.718Z,7.23
2023-04-15T00:47:25.727Z,7.24
2023-04-15T00:48:25.706Z,7.08
2023-04-15T00:49:25.729Z,7.17
2023-04-15T00:50:25.720Z,7.26
2023-04-15T00:51:25.678Z,7.16
2023-04-15T00:52:26.689Z,7.20
2023-04-15T00:53:25.677Z,7.19
2023-04-15T00:54:25.691Z,7.09
2023-04-15T00:55:25.675Z,7.02
2023-04-15T00:56:25.654Z,7.13
2023-04-15T00:57:25.646Z,7.05
2023-04-15T00:58:25.635Z,7.02
2023-04-15T00:59:25.653Z,7.01
2023-04-15T01:00:25.633Z,7.02
2023-04-15T01:01:25.689Z,7.07
2023-04-15T01:02:25.716Z,6.91
2023-04-15T01:03:25.731Z,7.01
2023-04-15T01:04:25.688Z,6.91
2023-04-15T01:05:25.622Z,6.89
2023-04-15T01:06:25.587Z,6.87
2023-04-15T01:07:25.583Z,6.83
2023-04-15T01:08:25.565Z,6.98
2023-04-15T01:09:25.562Z,6.95
2023-04-15T01:10:25.573Z,6.79
2023-04-15T01:11:25.549Z,6.86
2023-04-15T01:12:25.545Z,6.95
2023-04-15T01:13:25.531Z,6.84
2023-04-15T01:14:25.522Z,6.79
2023-04-15T01:15:25.542Z,6.94
2023-04-15T01:16:25.586Z,6.83
2023-04-15T01:17:25.542Z,6.83
2023-04-15T01:18:25.510Z,6.87
2023-04-15T01:19:25.496Z,6.81
2023-04-15T01:20:25.522Z,6.84
2023-04-15T01:21:25.498Z,6.87
2023-04-15T01:22:25.483Z,6.81
2023-04-15T01:23:25.470Z,6.76
2023-04-15T01:24:25.464Z,6.79
2023-04-15T01:25:25.462Z,6.71
2023-04-15T01:26:25.468Z,6.76
2023-04-15T01:27:25.456Z,6.73
2023-04-15T01:28:25.432Z,6.71
2023-04-15T01:29:25.441Z,6.65
2023-04-15T01:30:25.434Z,6.73
2023-04-15T01:31:25.466Z,6.77
2023-04-15T01:32:25.433Z,6.66
2023-04-15T01:33:25.413Z,6.69
2023-04-15T01:34:25.394Z,6.65
2023-04-15T01:35:25.389Z,6.71
2023-04-15T01:36:25.418Z,6.63
2023-04-15T01:37:25.371Z,6.53
2023-04-15T01:38:25.382Z,6.47
2023-04-15T01:39:25.365Z,6.47
2023-04-15T01:40:25.374Z,6.48
2023-04-15T01:41:25.353Z,6.50
2023-04-15T01:42:25.353Z,6.51
2023-04-15T01:43:25.338Z,6.46
2023-04-15T01:44:25.349Z,6.47
2023-04-15T01:45:25.360Z,6.47
2023-04-15T01:46:25.354Z,6.29
2023-04-15T01:47:25.330Z,6.36
2023-04-15T01:48:25.305Z,6.30
2023-04-15T01:49:25.302Z,6.32
2023-04-15T01:50:25.285Z,6.29
2023-04-15T01:51:26.333Z,6.33
2023-04-15T01:52:25.301Z,6.38
2023-04-15T01:53:25.275Z,6.41
2023-04-15T01:54:25.262Z,6.41
2023-04-15T01:55:25.257Z,6.46
2023-04-15T01:56:25.299Z,6.36
2023-04-15T01:57:25.252Z,6.46
2023-04-15T01:58:25.269Z,6.36
2023-04-15T01:59:25.251Z,6.51
2023-04-15T02:00:26.228Z,6.50
2023-04-15T02:01:25.303Z,6.47
2023-04-15T02:02:25.355Z,6.40
2023-04-15T02:03:25.318Z,6.30
2023-04-15T02:04:25.211Z,6.40
2023-04-15T02:05:25.204Z,6.32
2023-04-15T02:06:25.222Z,6.41
2023-04-15T02:07:25.185Z,6.30
2023-04-15T02:08:26.204Z,6.21
2023-04-15T02:09:25.175Z,6.32
2023-04-15T02:10:25.172Z,6.21
2023-04-15T02:11:25.171Z,6.38
2023-04-15T02:12:25.163Z,6.41
2023-04-15T02:13:25.177Z,6.40
2023-04-15T02:14:25.156Z,6.47
2023-04-15T02:15:25.140Z,6.38
2023-04-15T02:16:25.148Z,6.30
2023-04-15T02:17:25.162Z,6.40
2023-04-15T02:18:25.120Z,6.35
2023-04-15T02:19:25.117Z,6.36
2023-04-15T02:20:25.102Z,6.36
2023-04-15T02:21:25.104Z,6.29
2023-04-15T02:22:25.088Z,6.36
2023-04-15T02:23:25.100Z,6.46
2023-04-15T02:24:25.375Z,6.40
2023-04-15T02:25:25.084Z,6.35
2023-04-15T02:26:25.071Z,6.40
2023-04-15T02:27:25.054Z,6.43
2023-04-15T02:28:25.048Z,6.47
2023-04-15T02:29:25.052Z,6.43
2023-04-15T02:30:25.033Z,6.43
2023-04-15T02:31:25.065Z,6.44
2023-04-15T02:32:25.072Z,6.47
2023-04-15T02:33:25.015Z,6.29
2023-04-15T02:34:25.022Z,6.38
2023-04-15T02:35:24.996Z,6.38
2023-04-15T02:36:25.016Z,6.47
2023-04-15T02:37:24.986Z,6.35
2023-04-15T02:38:24.976Z,6.35
2023-04-15T02:39:24.980Z,6.40
2023-04-15T02:40:24.964Z,6.38
2023-04-15T02:41:24.994Z,6.41
2023-04-15T02:42:24.964Z,6.46
2023-04-15T02:43:24.951Z,6.33
2023-04-15T02:44:24.991Z,6.41
2023-04-15T02:45:24.934Z,6.35
2023-04-15T02:46:24.988Z,6.38
2023-04-15T02:47:24.955Z,6.38
2023-04-15T02:48:24.909Z,6.35
2023-04-15T02:49:24.905Z,6.35
2023-04-15T02:50:24.913Z,6.30
2023-04-15T02:51:24.917Z,6.32
2023-04-15T02:52:24.906Z,6.36
2023-04-15T02:53:24.875Z,6.30
2023-04-15T02:54:24.874Z,6.29
2023-04-15T02:55:24.853Z,6.25
2023-04-15T02:56:24.855Z,6.29
2023-04-15T02:57:24.882Z,6.26
2023-04-15T02:58:24.852Z,6.22
2023-04-15T02:59:24.845Z,6.33
2023-04-15T03:00:24.822Z,6.26
2023-04-15T03:01:24.852Z,6.22
2023-04-15T03:02:24.882Z,6.22
2023-04-15T03:03:24.885Z,6.28
2023-04-15T03:04:24.808Z,6.22
2023-04-15T03:05:24.805Z,6.22
2023-04-15T03:06:24.817Z,6.19
2023-04-15T03:07:24.784Z,6.11
2023-04-15T03:08:24.780Z,6.11
2023-04-15T03:09:24.772Z,6.16
2023-04-15T03:10:24.797Z,6.21
2023-04-15T03:11:24.754Z,6.22
2023-04-15T03:12:24.749Z,6.18
2023-04-15T03:13:24.746Z,6.13
2023-04-15T03:14:24.738Z,6.14
2023-04-15T03:15:24.746Z,6.13
2023-04-15T03:16:24.718Z,6.11
2023-04-15T03:17:24.734Z,6.10
2023-04-15T03:18:24.729Z,6.10
2023-04-15T03:19:24.714Z,6.04
2023-04-15T03:20:24.742Z,6.14
2023-04-15T03:21:24.690Z,6.01
2023-04-15T03:22:24.689Z,6.06
2023-04-15T03:23:24.683Z,6.00
2023-04-15T03:24:24.683Z,5.88
2023-04-15T03:25:24.688Z,5.83
2023-04-15T03:26:24.649Z,5.73
2023-04-15T03:27:24.645Z,5.63
2023-04-15T03:28:24.646Z,5.66
2023-04-15T03:29:24.636Z,5.75
2023-04-15T03:30:24.633Z,5.83
2023-04-15T03:31:24.708Z,5.67
2023-04-15T03:32:24.668Z,5.83
2023-04-15T03:33:24.628Z,5.74
2023-04-15T03:34:24.606Z,5.73
2023-04-15T03:35:24.605Z,5.78
2023-04-15T03:36:24.600Z,5.86
2023-04-15T03:37:24.619Z,5.81
2023-04-15T03:38:24.575Z,5.71
2023-04-15T03:39:24.577Z,5.77
2023-04-15T03:40:24.585Z,5.75
2023-04-15T03:41:24.549Z,5.67
2023-04-15T03:42:24.577Z,5.74
2023-04-15T03:43:24.542Z,5.81
2023-04-15T03:44:24.542Z,5.66
2023-04-15T03:45:24.539Z,5.74
2023-04-15T03:46:24.564Z,5.70
2023-04-15T03:47:24.537Z,5.67
2023-04-15T03:48:24.622Z,5.64
2023-04-15T03:49:24.538Z,5.59
2023-04-15T03:50:24.528Z,5.67
2023-04-15T03:51:24.530Z,5.53
2023-04-15T03:52:24.495Z,5.59
2023-04-15T03:53:24.484Z,5.60
2023-04-15T03:54:24.479Z,5.53
2023-04-15T03:55:24.465Z,5.55
2023-04-15T03:56:24.479Z,5.53
2023-04-15T03:57:24.462Z,5.49
2023-04-15T03:58:24.468Z,5.55
2023-04-15T03:59:24.448Z,5.50
2023-04-15T04:00:24.463Z,5.40
2023-04-15T04:01:24.433Z,5.50
2023-04-15T04:02:24.642Z,5.40
2023-04-15T04:03:24.616Z,5.52
2023-04-15T04:04:24.532Z,5.46
2023-04-15T04:05:24.409Z,5.45
2023-04-15T04:06:24.404Z,5.49
2023-04-15T04:07:24.397Z,5.41
2023-04-15T04:08:24.408Z,5.45
2023-04-15T04:09:24.380Z,5.43
2023-04-15T04:10:24.390Z,5.46
2023-04-15T04:11:24.376Z,5.45
2023-04-15T04:12:24.364Z,5.43
2023-04-15T04:13:24.382Z,5.40
2023-04-15T04:14:24.353Z,5.45
2023-04-15T04:15:24.347Z,5.43
2023-04-15T04:16:24.398Z,5.40
2023-04-15T04:17:24.372Z,5.43
2023-04-15T04:18:24.333Z,5.34
2023-04-15T04:19:24.405Z,5.40
2023-04-15T04:20:24.322Z,5.41
2023-04-15T04:21:24.314Z,5.38
2023-04-15T04:22:24.291Z,5.46
2023-04-15T04:23:24.294Z,5.40
2023-04-15T04:24:24.515Z,5.46
2023-04-15T04:25:24.286Z,5.41
2023-04-15T04:26:24.278Z,5.43
2023-04-15T04:27:24.273Z,5.43
2023-04-15T04:28:24.279Z,5.40
2023-04-15T04:29:24.270Z,5.40
2023-04-15T04:30:24.266Z,5.41
2023-04-15T04:31:24.305Z,5.49
2023-04-15T04:32:24.254Z,5.48
2023-04-15T04:33:24.253Z,5.48
2023-04-15T04:34:24.226Z,5.45
2023-04-15T04:35:24.261Z,5.49
2023-04-15T04:36:24.217Z,5.53
2023-04-15T04:37:24.210Z,5.50
2023-04-15T04:38:24.201Z,5.56
2023-04-15T04:39:24.204Z,5.59
2023-04-15T04:40:24.210Z,5.68
2023-04-15T04:41:24.181Z,5.64
2023-04-15T04:42:24.185Z,5.71
2023-04-15T04:43:24.174Z,5.67
2023-04-15T04:44:24.164Z,5.67
2023-04-15T04:45:24.189Z,5.71
2023-04-15T04:46:24.221Z,5.75
2023-04-15T04:47:24.188Z,5.71
2023-04-15T04:48:24.140Z,5.70
2023-04-15T04:49:24.133Z,5.74
2023-04-15T04:50:24.128Z,5.77
2023-04-15T04:51:24.144Z,5.71
2023-04-15T04:52:24.122Z,5.83
2023-04-15T04:53:24.104Z,5.73
2023-04-15T04:54:24.102Z,5.81
2023-04-15T04:55:24.093Z,5.82
2023-04-15T04:56:24.094Z,5.91
2023-04-15T04:57:24.101Z,5.82
2023-04-15T04:58:24.076Z,5.89
2023-04-15T04:59:24.090Z,5.96
2023-04-15T05:00:24.061Z,5.95
2023-04-15T05:01:24.171Z,6.00
2023-04-15T05:02:24.139Z,6.06
2023-04-15T05:03:24.086Z,5.98
2023-04-15T05:04:24.029Z,6.01
2023-04-15T05:05:24.033Z,6.09
2023-04-15T05:06:24.038Z,6.07
2023-04-15T05:07:24.053Z,6.03
2023-04-15T05:08:24.013Z,6.04
2023-04-15T05:09:24.002Z,6.09
2023-04-15T05:10:23.997Z,6.07
2023-04-15T05:11:24.013Z,6.26
2023-04-15T05:12:23.984Z,6.26
2023-04-15T05:13:23.978Z,6.21
2023-04-15T05:14:23.975Z,6.13
2023-04-15T05:15:23.985Z,6.14
2023-04-15T05:16:24.115Z,6.36
2023-04-15T05:17:23.985Z,6.35
2023-04-15T05:18:23.960Z,6.29
2023-04-15T05:19:23.951Z,6.32
2023-04-15T05:20:23.949Z,6.41
2023-04-15T05:21:23.934Z,6.33
2023-04-15T05:22:23.931Z,6.46
2023-04-15T05:23:23.930Z,6.46
2023-04-15T05:24:23.912Z,6.50
2023-04-15T05:25:23.932Z,6.61
2023-04-15T05:26:23.902Z,6.68
2023-04-15T05:27:23.928Z,6.65
2023-04-15T05:28:23.891Z,6.62
2023-04-15T05:29:23.903Z,6.63
2023-04-15T05:30:23.972Z,6.81
2023-04-15T05:31:23.934Z,6.81
2023-04-15T05:32:23.885Z,6.81
2023-04-15T05:33:23.873Z,6.87
2023-04-15T05:34:23.847Z,6.91
2023-04-15T05:35:23.856Z,6.97
2023-04-15T05:36:23.847Z,7.16
2023-04-15T05:37:23.838Z,7.15
2023-04-15T05:38:23.825Z,7.19
2023-04-15T05:39:23.827Z,7.24
2023-04-15T05:40:23.824Z,7.32
2023-04-15T05:41:23.838Z,7.32
2023-04-15T05:42:23.800Z,7.29
2023-04-15T05:43:23.803Z,7.34
2023-04-15T05:44:23.786Z,7.49
2023-04-15T05:45:23.784Z,7.52
2023-04-15T05:46:23.854Z,7.55
2023-04-15T05:47:23.828Z,7.62
2023-04-15T05:48:23.765Z,7.60
2023-04-15T05:49:23.766Z,7.71
2023-04-15T05:50:23.772Z,7.79
2023-04-15T05:51:23.743Z,7.71
2023-04-15T05:52:23.770Z,7.79
2023-04-15T05:53:23.737Z,7.85
2023-04-15T05:54:23.764Z,7.89
2023-04-15T05:55:23.723Z,7.84
2023-04-15T05:56:23.728Z,7.93
2023-04-15T05:57:23.715Z,7.89
2023-04-15T05:58:23.703Z,7.97
2023-04-15T05:59:23.699Z,8.07
2023-04-15T06:00:23.696Z,8.04
2023-04-15T06:01:23.691Z,8.12
2023-04-15T06:02:23.733Z,8.26
2023-04-15T06:03:23.746Z,8.29
2023-04-15T06:04:23.706Z,8.30
2023-04-15T06:05:23.649Z,8.29
2023-04-15T06:06:23.656Z,8.30
2023-04-15T06:07:23.647Z,8.40
2023-04-15T06:08:23.638Z,8.48
2023-04-15T06:09:23.645Z,8.40
2023-04-15T06:10:23.621Z,8.47
2023-04-15T06:11:23.620Z,8.57
2023-04-15T06:12:23.613Z,8.48
2023-04-15T06:13:23.609Z,8.55
2023-04-15T06:14:23.600Z,8.60
2023-04-15T06:15:23.624Z,8.66
2023-04-15T06:16:23.666Z,8.73
2023-04-15T06:17:23.632Z,8.69
2023-04-15T06:18:23.597Z,8.78
2023-04-15T06:19:23.560Z,8.76
2023-04-15T06:20:23.556Z,8.86
2023-04-15T06:21:23.558Z,8.88
2023-04-15T06:22:23.588Z,8.88
2023-04-15T06:23:23.552Z,8.83
2023-04-15T06:24:23.549Z,9.02
2023-04-15T06:25:23.521Z,8.94
2023-04-15T06:26:23.511Z,8.94
2023-04-15T06:27:23.508Z,8.94
2023-04-15T06:28:23.499Z,9.01
2023-04-15T06:29:23.502Z,8.96
2023-04-15T06:30:24.464Z,9.05
2023-04-15T06:31:24.513Z,9.15
2023-04-15T06:32:23.513Z,9.20
2023-04-15T06:33:23.467Z,9.20
2023-04-15T06:34:23.463Z,9.15
2023-04-15T06:35:23.467Z,9.05
2023-04-15T06:36:23.451Z,8.94
2023-04-15T06:37:23.444Z,8.99
2023-04-15T06:38:23.433Z,8.97
2023-04-15T06:39:23.424Z,8.96
2023-04-15T06:40:23.435Z,8.90
2023-04-15T06:41:24.413Z,8.93
2023-04-15T06:42:23.418Z,8.91
2023-04-15T06:43:23.402Z,8.79
2023-04-15T06:44:23.398Z,8.90
2023-04-15T06:45:23.596Z,8.88
2023-04-15T06:46:23.487Z,8.87
2023-04-15T06:47:23.420Z,8.79
2023-04-15T06:48:23.375Z,8.69
2023-04-15T06:49:23.365Z,8.97
2023-04-15T06:50:23.377Z,8.90
2023-04-15T06:51:24.460Z,8.90
2023-04-15T06:52:23.343Z,8.94
2023-04-15T06:53:23.330Z,8.93
2023-04-15T06:54:23.325Z,8.88
2023-04-15T06:55:23.310Z,8.87
2023-04-15T06:56:23.337Z,8.90
2023-04-15T06:57:23.300Z,8.88
2023-04-15T06:58:23.309Z,8.87
2023-04-15T06:59:23.289Z,8.86
2023-04-15T07:00:23.303Z,8.93
2023-04-15T07:01:23.332Z,8.90
2023-04-15T07:02:23.309Z,8.78
2023-04-15T07:03:23.290Z,8.79
2023-04-15T07:04:23.276Z,8.78
2023-04-15T07:05:23.256Z,8.90
2023-04-15T07:06:23.236Z,8.83
2023-04-15T07:07:23.273Z,8.78
2023-04-15T07:08:23.233Z,8.86
2023-04-15T07:09:23.215Z,8.93
2023-04-15T07:10:25.691Z,8.96
2023-04-15T07:11:23.207Z,8.94
2023-04-15T07:12:23.221Z,8.96
2023-04-15T07:13:23.217Z,8.94
2023-04-15T07:14:23.195Z,8.91
2023-04-15T07:15:23.197Z,8.90
2023-04-15T07:16:23.190Z,8.96
2023-04-15T07:17:23.216Z,8.91
2023-04-15T07:18:23.175Z,8.88
2023-04-15T07:19:23.174Z,9.04
2023-04-15T07:20:23.147Z,9.02
2023-04-15T07:21:23.147Z,9.02
2023-04-15T07:22:23.177Z,9.13
2023-04-15T07:23:23.135Z,9.09
2023-04-15T07:24:23.310Z,9.04
2023-04-15T07:25:23.119Z,9.15
2023-04-15T07:26:23.121Z,9.13
2023-04-15T07:27:23.091Z,9.12
2023-04-15T07:28:23.098Z,9.12
2023-04-15T07:29:23.098Z,9.10
2023-04-15T07:30:23.079Z,8.99
2023-04-15T07:31:23.137Z,9.02
2023-04-15T07:32:23.082Z,9.15
2023-04-15T07:33:23.075Z,9.12
2023-04-15T07:34:23.060Z,9.12
2023-04-15T07:35:23.035Z,9.02
2023-04-15T07:36:23.046Z,9.01
2023-04-15T07:37:23.028Z,8.96
2023-04-15T07:38:23.025Z,8.99
2023-04-15T07:39:23.054Z,9.01
2023-04-15T07:40:23.016Z,8.96
2023-04-15T07:41:23.012Z,9.01
2023-04-15T07:42:22.992Z,9.05
2023-04-15T07:43:22.998Z,8.96
2023-04-15T07:44:23.030Z,9.01
2023-04-15T07:45:22.997Z,9.05
2023-04-15T07:46:23.003Z,9.01
2023-04-15T07:47:22.993Z,9.06
2023-04-15T07:48:22.971Z,9.12
2023-04-15T07:49:22.949Z,9.18
2023-04-15T07:50:22.950Z,9.24
2023-04-15T07:51:22.936Z,9.23
2023-04-15T07:52:22.927Z,9.21
2023-04-15T07:53:22.939Z,9.25
2023-04-15T07:54:22.904Z,9.30
2023-04-15T07:55:22.922Z,9.34
2023-04-15T07:56:22.907Z,9.32
2023-04-15T07:57:22.898Z,9.52
2023-04-15T07:58:22.892Z,9.48
2023-04-15T07:59:22.887Z,9.50
2023-04-15T08:00:22.942Z,9.56
2023-04-15T08:01:22.887Z,9.61
2023-04-15T08:02:22.950Z,9.67
2023-04-15T08:03:22.990Z,9.73
2023-04-15T08:04:22.957Z,9.82
2023-04-15T08:05:22.937Z,9.79
2023-04-15T08:06:22.865Z,9.71
2023-04-15T08:07:22.830Z,9.66
2023-04-15T08:08:22.822Z,9.63
2023-04-15T08:09:22.814Z,9.76
2023-04-15T08:10:22.803Z,9.60
2023-04-15T08:11:22.802Z,9.56
2023-04-15T08:12:22.813Z,9.57
2023-04-15T08:13:22.793Z,9.66
2023-04-15T08:14:22.785Z,9.70
2023-04-15T08:15:22.773Z,9.63
2023-04-15T08:16:22.849Z,9.50
2023-04-15T08:17:22.788Z,9.60
2023-04-15T08:18:22.759Z,9.71
2023-04-15T08:19:22.748Z,9.71
2023-04-15T08:20:22.746Z,9.68
2023-04-15T08:21:22.743Z,9.68
2023-04-15T08:22:22.756Z,9.85
2023-04-15T08:23:22.726Z,9.79
2023-04-15T08:24:22.704Z,9.82
2023-04-15T08:25:22.709Z,9.93
2023-04-15T08:26:22.716Z,9.89
2023-04-15T08:27:22.688Z,9.86
2023-04-15T08:28:22.701Z,9.93
2023-04-15T08:29:22.689Z,9.88
2023-04-15T08:30:22.666Z,9.99
2023-04-15T08:31:22.754Z,10.01
2023-04-15T08:32:22.782Z,10.00
2023-04-15T08:33:22.714Z,9.88
2023-04-15T08:34:22.641Z,9.86
2023-04-15T08:35:22.651Z,9.94
2023-04-15T08:36:22.626Z,9.91
2023-04-15T08:37:22.618Z,10.03
2023-04-15T08:38:22.641Z,9.94
2023-04-15T08:39:22.620Z,9.99
2023-04-15T08:40:22.599Z,10.07
2023-04-15T08:41:22.589Z,10.09
2023-04-15T08:42:22.590Z,10.14
2023-04-15T08:43:22.586Z,10.22
2023-04-15T08:44:22.586Z,10.18
2023-04-15T08:45:22.574Z,10.22
2023-04-15T08:46:22.602Z,10.18
2023-04-15T08:47:22.674Z,10.04
2023-04-15T08:48:22.548Z,10.01
2023-04-15T08:49:22.555Z,9.96
2023-04-15T08:50:22.539Z,9.88
2023-04-15T08:51:24.488Z,9.79
2023-04-15T08:52:22.529Z,9.76
2023-04-15T08:53:22.512Z,9.88
2023-04-15T08:54:22.504Z,9.88
2023-04-15T08:55:22.502Z,9.91
2023-04-15T08:56:22.527Z,10.01
2023-04-15T08:57:22.505Z,10.01
2023-04-15T08:58:22.482Z,9.93
2023-04-15T08:59:22.476Z,10.12
2023-04-15T09:00:22.457Z,10.07
2023-04-15T09:01:23.507Z,10.10
2023-04-15T09:02:22.568Z,9.99
2023-04-15T09:03:22.576Z,9.96
2023-04-15T09:04:22.443Z,9.97
2023-04-15T09:05:22.438Z,9.97
2023-04-15T09:06:22.456Z,9.88
2023-04-15T09:07:22.428Z,9.94
2023-04-15T09:08:22.454Z,9.97
2023-04-15T09:09:22.405Z,9.96
2023-04-15T09:10:22.406Z,10.03
2023-04-15T09:11:22.449Z,10.03
2023-04-15T09:12:22.393Z,10.03
2023-04-15T09:13:22.386Z,9.89
2023-04-15T09:14:22.381Z,9.89
2023-04-15T09:15:22.373Z,9.81
2023-04-15T09:16:22.382Z,9.88
2023-04-15T09:17:22.398Z,9.86
2023-04-15T09:18:22.387Z,9.83
2023-04-15T09:19:22.344Z,9.83
2023-04-15T09:20:22.338Z,9.85
2023-04-15T09:21:22.326Z,9.79
2023-04-15T09:22:22.320Z,9.82
2023-04-15T09:23:22.324Z,9.88
2023-04-15T09:24:22.356Z,9.79
2023-04-15T09:25:22.306Z,9.81
2023-04-15T09:26:22.295Z,9.85
2023-04-15T09:27:22.290Z,9.82
2023-04-15T09:28:22.293Z,9.94
2023-04-15T09:29:22.284Z,9.79
2023-04-15T09:30:22.279Z,9.76
2023-04-15T09:31:22.372Z,9.68
2023-04-15T09:32:22.290Z,9.81
2023-04-15T09:33:22.269Z,9.76
2023-04-15T09:34:22.247Z,9.71
2023-04-15T09:35:22.253Z,9.60
2023-04-15T09:36:22.309Z,9.64
2023-04-15T09:37:32.070Z,9.50
2023-04-15T09:38:24.216Z,9.60
2023-04-15T09:39:22.220Z,9.63
2023-04-15T09:40:22.233Z,9.58
2023-04-15T09:41:22.568Z,9.61
2023-04-15T09:42:22.196Z,9.61
2023-04-15T09:43:22.192Z,9.67
2023-04-15T09:44:22.171Z,9.70
2023-04-15T09:45:22.172Z,9.61
2023-04-15T09:46:22.277Z,9.67
2023-04-15T09:47:22.188Z,9.63
2023-04-15T09:48:22.197Z,9.61
2023-04-15T09:49:22.170Z,9.68
2023-04-15T09:50:22.180Z,9.61
2023-04-15T09:51:22.131Z,9.49
2023-04-15T09:52:22.162Z,9.61
2023-04-15T09:53:22.108Z,9.64
2023-04-15T09:54:23.114Z,9.52
2023-04-15T09:55:22.106Z,9.53
2023-04-15T09:56:22.096Z,9.57
2023-04-15T09:57:22.100Z,9.67
2023-04-15T09:58:22.163Z,9.57
2023-04-15T09:59:22.084Z,9.60
2023-04-15T10:00:22.081Z,9.63
2023-04-15T10:01:22.095Z,9.67
2023-04-15T10:02:22.136Z,9.70
2023-04-15T10:03:22.235Z,9.68
2023-04-15T10:04:22.181Z,9.79
2023-04-15T10:05:22.047Z,9.67
2023-04-15T10:06:22.032Z,9.75
2023-04-15T10:07:22.028Z,9.82
2023-04-15T10:08:22.031Z,9.76
2023-04-15T10:09:22.015Z,9.73
2023-04-15T10:10:21.998Z,9.68
2023-04-15T10:11:22.007Z,9.71
2023-04-15T10:12:21.995Z,9.82
2023-04-15T10:13:21.996Z,9.71
2023-04-15T10:14:21.996Z,9.78
2023-04-15T10:15:21.983Z,9.78
2023-04-15T10:16:22.051Z,9.75
2023-04-15T10:17:22.044Z,9.64
2023-04-15T10:18:21.955Z,9.52
2023-04-15T10:19:21.971Z,9.61
2023-04-15T10:20:21.951Z,9.53
2023-04-15T10:21:21.943Z,9.60
2023-04-15T10:22:21.929Z,9.34
2023-04-15T10:23:21.955Z,9.32
2023-04-15T10:24:21.931Z,9.28
2023-04-15T10:25:21.911Z,9.27
2023-04-15T10:26:21.920Z,9.25
2023-04-15T10:27:21.906Z,9.27
2023-04-15T10:28:21.915Z,9.20
2023-04-15T10:29:21.895Z,9.28
2023-04-15T10:30:21.889Z,9.28
2023-04-15T10:31:21.911Z,9.25
2023-04-15T10:32:21.895Z,9.24
2023-04-15T10:33:21.871Z,9.18
2023-04-15T10:34:21.850Z,9.20
2023-04-15T10:35:21.843Z,9.24
2023-04-15T10:36:21.840Z,9.23
2023-04-15T10:37:21.831Z,9.30
2023-04-15T10:38:21.843Z,9.38
2023-04-15T10:39:21.827Z,9.31
2023-04-15T10:40:21.834Z,9.20
2023-04-15T10:41:22.017Z,9.28
2023-04-15T10:42:21.807Z,9.38
2023-04-15T10:43:21.795Z,9.35
2023-04-15T10:44:21.797Z,9.34
2023-04-15T10:45:21.787Z,9.27
2023-04-15T10:46:21.841Z,9.32
2023-04-15T10:47:21.965Z,9.42
2023-04-15T10:48:21.758Z,9.28
2023-04-15T10:49:21.749Z,9.32
2023-04-15T10:50:21.746Z,9.24
2023-04-15T10:51:21.746Z,9.42
2023-04-15T10:52:21.742Z,9.30
2023-04-15T10:53:21.872Z,9.38
2023-04-15T10:54:22.731Z,9.48
2023-04-15T10:55:21.722Z,9.46
2023-04-15T10:56:21.710Z,9.49
2023-04-15T10:57:21.718Z,9.57
2023-04-15T10:58:21.707Z,9.60
2023-04-15T10:59:22.399Z,9.58
2023-04-15T11:00:22.680Z,9.71
2023-04-15T11:01:21.700Z,9.61
2023-04-15T11:02:21.795Z,9.68
2023-04-15T11:03:21.723Z,9.71
2023-04-15T11:04:21.711Z,9.71
2023-04-15T11:05:21.656Z,9.57
2023-04-15T11:06:21.643Z,9.68
2023-04-15T11:07:21.668Z,9.68
2023-04-15T11:08:21.634Z,9.73
2023-04-15T11:09:21.623Z,9.71
2023-04-15T11:10:21.622Z,9.67
2023-04-15T11:11:21.610Z,9.73
2023-04-15T11:12:21.609Z,9.60
2023-04-15T11:13:21.684Z,9.66
2023-04-15T11:14:21.607Z,9.68
2023-04-15T11:15:21.590Z,9.63
2023-04-15T11:16:21.650Z,9.66
2023-04-15T11:17:21.595Z,9.58
2023-04-15T11:18:21.889Z,9.75
2023-04-15T11:19:21.795Z,9.68
2023-04-15T11:20:21.565Z,9.64
2023-04-15T11:21:21.553Z,9.70
2023-04-15T11:22:21.550Z,9.68
2023-04-15T11:23:21.549Z,9.82
2023-04-15T11:24:21.539Z,9.75
2023-04-15T11:25:21.534Z,9.68
2023-04-15T11:26:21.509Z,9.81
2023-04-15T11:27:21.515Z,9.79
2023-04-15T11:28:21.506Z,9.71
2023-04-15T11:29:21.511Z,9.81
2023-04-15T11:30:21.486Z,9.79
2023-04-15T11:31:21.550Z,9.73
2023-04-15T11:32:21.501Z,9.76
2023-04-15T11:33:21.498Z,9.79
2023-04-15T11:34:21.469Z,9.78
2023-04-15T11:35:21.466Z,9.68
2023-04-15T11:36:21.464Z,9.79
2023-04-15T11:37:21.452Z,9.73
2023-04-15T11:38:21.511Z,9.60
2023-04-15T11:39:21.435Z,9.61
2023-04-15T11:40:21.448Z,9.64
2023-04-15T11:41:21.423Z,9.58
2023-04-15T11:42:21.403Z,9.64
2023-04-15T11:43:21.404Z,9.75
2023-04-15T11:44:21.428Z,9.67
2023-04-15T11:45:21.390Z,9.60
2023-04-15T11:46:21.551Z,9.70
2023-04-15T11:47:21.390Z,9.73
2023-04-15T11:48:22.375Z,9.76
2023-04-15T11:49:21.419Z,9.71
2023-04-15T11:50:21.361Z,9.64
2023-04-15T11:51:21.366Z,9.56
2023-04-15T11:52:21.350Z,9.71
2023-04-15T11:53:21.344Z,9.63
2023-04-15T11:54:21.338Z,9.67
2023-04-15T11:55:21.339Z,9.57
2023-04-15T11:56:21.321Z,9.53
2023-04-15T11:57:21.325Z,9.56
2023-04-15T11:58:21.319Z,9.49
2023-04-15T11:59:21.307Z,9.58
2023-04-15T12:00:21.315Z,9.50
2023-04-15T12:01:21.289Z,9.58
2023-04-15T12:02:21.340Z,9.56
2023-04-15T12:03:21.392Z,9.60
2023-04-15T12:04:24.507Z,9.61
2023-04-15T12:05:22.483Z,9.64
2023-04-15T12:06:21.267Z,9.78
2023-04-15T12:07:21.258Z,9.76
2023-04-15T12:08:21.278Z,9.78
2023-04-15T12:09:21.891Z,9.79
2023-04-15T12:10:21.225Z,9.88
2023-04-15T12:11:22.228Z,9.88
2023-04-15T12:12:21.238Z,9.78
2023-04-15T12:13:21.214Z,9.83
2023-04-15T12:14:21.208Z,9.79
2023-04-15T12:15:21.210Z,9.86
2023-04-15T12:16:21.233Z,9.73
2023-04-15T12:17:21.335Z,9.66
2023-04-15T12:18:21.183Z,9.57
2023-04-15T12:19:21.189Z,9.63
2023-04-15T12:20:21.168Z,9.53
2023-04-15T12:21:21.147Z,9.57
2023-04-15T12:22:21.166Z,9.53
2023-04-15T12:23:21.177Z,9.52
2023-04-15T12:24:21.157Z,9.45
2023-04-15T12:25:22.121Z,9.58
2023-04-15T12:26:21.111Z,9.56
2023-04-15T12:27:21.130Z,9.49
2023-04-15T12:28:21.128Z,9.57
2023-04-15T12:29:21.123Z,9.61
2023-04-15T12:30:21.098Z,9.67
2023-04-15T12:31:21.105Z,9.58
2023-04-15T12:32:21.207Z,9.66
2023-04-15T12:33:21.070Z,9.64
2023-04-15T12:34:21.086Z,9.75
2023-04-15T12:35:21.062Z,9.78
2023-04-15T12:36:21.056Z,9.86
2023-04-15T12:37:21.075Z,9.79
2023-04-15T12:38:21.035Z,9.85
2023-04-15T12:39:21.036Z,9.88
2023-04-15T12:40:21.036Z,9.99
2023-04-15T12:41:21.044Z,9.97
2023-04-15T12:42:21.020Z,9.93
2023-04-15T12:43:21.002Z,9.93
2023-04-15T12:44:21.014Z,10.01
2023-04-15T12:45:21.013Z,10.00
2023-04-15T12:46:21.015Z,9.94
2023-04-15T12:47:21.013Z,9.94
2023-04-15T12:48:21.976Z,9.85
2023-04-15T12:49:21.001Z,9.85
2023-04-15T12:50:20.965Z,9.76
2023-04-15T12:51:20.958Z,9.96
2023-04-15T12:52:20.957Z,10.01
2023-04-15T12:53:20.942Z,10.00
2023-04-15T12:54:20.957Z,9.91
2023-04-15T12:55:20.937Z,9.96
2023-04-15T12:56:20.929Z,9.89
2023-04-15T12:57:20.964Z,9.85
2023-04-15T12:58:20.911Z,9.89
2023-04-15T12:59:20.917Z,9.85
2023-04-15T13:00:20.898Z,9.75
2023-04-15T13:01:20.994Z,9.83
2023-04-15T13:02:21.016Z,9.78
2023-04-15T13:03:20.936Z,9.91
2023-04-15T13:04:21.015Z,9.86
2023-04-15T13:05:20.868Z,9.81
2023-04-15T13:06:21.132Z,9.81
2023-04-15T13:07:20.870Z,9.86
2023-04-15T13:08:20.857Z,9.70
2023-04-15T13:09:20.888Z,9.67
2023-04-15T13:10:20.852Z,9.73
2023-04-15T13:11:20.820Z,9.70
2023-04-15T13:12:20.817Z,9.70
2023-04-15T13:13:20.816Z,9.64
2023-04-15T13:14:20.811Z,9.52
2023-04-15T13:15:20.869Z,9.48
2023-04-15T13:16:20.826Z,9.49
2023-04-15T13:17:20.819Z,9.57